Etusivu
METAR-TAF:

METAR-TAF

Lentoasemat :

Burnet Municipal Airport (Kate Craddock Field)

Burnet, Texas, Yhdysvallat

Leveyspiiri: 30-44-26N, Pituuspiiri: 098-14-07W, korkeus merenpinnasta: 392 m

Tämänhetkinen sää

Tämä raportti tehtiin 58 minuuttia sitten, kello 14.53 UTC
Tuuli 12 kn pohjoisesta puuskistuen 25 kn:hen
Lämpötila 7°C
Kosteus 81%
Ilmanpaine 1022 hPa
Näkyvyys: 16.1 km
Pilvistä 4300 ft:n korkeudessa

METAR: KBMQ 011453Z AUTO 01012G25KT 10SM OVC043 07/04 A3019 RMK AO2 PK WND 02029/1419 LTG DSNT S RAE1356B13E47 SLP219 P0000 60002 T00720039 53022

Aika: 09:51 (15:51 UTC)


TAF: puuttuu

Säähavainnot ja -ennusteet yli 4000 lentoasemalta (METAR- ja TAF-raportit).

Käytössä olevat sääasemat on merkitty karttaan keltaisilla ja punaisilla pisteillä.

Aseta hiiri pisteen päälle nähdäksesi sääaseman nimen.

Klikkaa sitten nähdäksesi säähavainnot ja -ennusteet.

Kartan vaihtaminen: klikkaa mustalla rastilla varustettuja vihreitä pisteitä, niin voit zoomata sisään; viivalla varustettua vihreää pistettä, niin voit zoomata ulos tai vihreitä nuolia, niin pääset viereisille kartoille.


METAR-TAF: